TimeCDT,TemperatureF,Dew PointF,Humidity,Sea Level PressureIn,VisibilityMPH,Wind Direction,Wind SpeedMPH,Gust SpeedMPH,PrecipitationIn,Events,Conditions,WindDirDegrees,DateUTC
12:13 AM,60.8,55.4,82,30.08,10.0,WNW,4.6,-,N/A,,Unknown,290,2013-08-03 05:13:00
12:33 AM,60.8,55.4,82,30.08,10.0,WNW,3.5,-,N/A,,Unknown,290,2013-08-03 05:33:00
12:52 AM,62.6,55.4,77,30.09,10.0,WNW,4.6,-,N/A,,Clear,290,2013-08-03 05:52:00
1:13 AM,62.6,55.4,77,30.10,10.0,WNW,4.6,-,N/A,,Scattered Clouds,300,2013-08-03 06:13:00
1:33 AM,60.8,55.4,82,30.09,10.0,Calm,Calm,-,N/A,,Clear,0,2013-08-03 06:33:00
1:52 AM,59.0,53.6,82,30.09,10.0,Calm,Calm,-,N/A,,Clear,0,2013-08-03 06:52:00
2:13 AM,57.2,53.6,88,30.09,10.0,WNW,3.5,-,N/A,,Scattered Clouds,300,2013-08-03 07:13:00
2:32 AM,60.8,53.6,77,30.10,10.0,NW,4.6,-,N/A,,Scattered Clouds,310,2013-08-03 07:32:00
2:53 AM,59.0,53.6,82,30.10,10.0,WNW,3.5,-,N/A,,Clear,300,2013-08-03 07:53:00
3:13 AM,57.2,53.6,88,30.10,10.0,Calm,Calm,-,N/A,,Clear,0,2013-08-03 08:13:00
3:32 AM,57.2,53.6,88,30.11,10.0,WNW,3.5,-,N/A,,Unknown,300,2013-08-03 08:32:00
3:53 AM,55.4,51.8,88,30.11,10.0,Calm,Calm,-,N/A,,Unknown,0,2013-08-03 08:53:00
4:13 AM,57.2,51.8,82,30.11,10.0,Calm,Calm,-,N/A,,Clear,0,2013-08-03 09:13:00
4:32 AM,55.4,53.6,94,30.11,10.0,Calm,Calm,-,N/A,,Unknown,0,2013-08-03 09:32:00
4:53 AM,55.4,51.8,88,30.11,10.0,Calm,Calm,-,N/A,,Unknown,0,2013-08-03 09:53:00
5:13 AM,55.4,51.8,88,30.11,10.0,Calm,Calm,-,N/A,,Scattered Clouds,0,2013-08-03 10:13:00
5:32 AM,55.4,51.8,88,30.11,10.0,Calm,Calm,-,N/A,,Unknown,0,2013-08-03 10:32:00
5:53 AM,53.6,51.8,94,30.12,10.0,Calm,Calm,-,N/A,,Unknown,0,2013-08-03 10:53:00
6:12 AM,53.6,53.6,100,30.13,10.0,West,3.5,-,N/A,,Unknown,260,2013-08-03 11:12:00
6:33 AM,53.6,51.8,94,30.14,10.0,Calm,Calm,-,N/A,,Unknown,0,2013-08-03 11:33:00
6:53 AM,55.4,53.6,94,30.14,10.0,Calm,Calm,-,N/A,,Clear,0,2013-08-03 11:53:00
7:12 AM,57.2,53.6,88,30.14,10.0,Calm,Calm,-,N/A,,Unknown,0,2013-08-03 12:12:00
7:33 AM,59.0,55.4,88,30.15,10.0,Calm,Calm,-,N/A,,Clear,0,2013-08-03 12:33:00
7:53 AM,60.8,55.4,82,30.16,10.0,Calm,Calm,-,N/A,,Clear,0,2013-08-03 12:53:00
8:12 AM,62.6,55.4,77,30.17,10.0,Calm,Calm,-,N/A,,Clear,0,2013-08-03 13:12:00
8:33 AM,62.6,55.4,77,30.17,10.0,NNW,3.5,-,N/A,,Clear,340,2013-08-03 13:33:00
8:53 AM,64.4,57.2,77,30.16,10.0,Calm,Calm,-,N/A,,Clear,0,2013-08-03 13:53:00
9:12 AM,64.4,57.2,77,30.17,10.0,Calm,Calm,-,N/A,,Clear,0,2013-08-03 14:12:00
9:33 AM,66.2,57.2,73,30.17,10.0,West,4.6,-,N/A,,Clear,260,2013-08-03 14:33:00
9:53 AM,69.8,57.2,64,30.18,10.0,WNW,4.6,-,N/A,,Clear,300,2013-08-03 14:53:00
10:12 AM,69.8,57.2,64,30.19,10.0,NW,4.6,-,N/A,,Clear,310,2013-08-03 15:12:00
10:33 AM,71.6,57.2,60,30.18,10.0,Calm,Calm,-,N/A,,Clear,0,2013-08-03 15:33:00
10:52 AM,71.6,57.2,60,30.18,10.0,NW,3.5,-,N/A,,Clear,310,2013-08-03 15:52:00
11:13 AM,71.6,57.2,60,30.18,10.0,NNW,5.8,-,N/A,,Clear,340,2013-08-03 16:13:00
11:33 AM,73.4,53.6,50,30.18,10.0,North,8.1,-,N/A,,Scattered Clouds,350,2013-08-03 16:33:00
11:52 AM,73.4,53.6,50,30.18,10.0,North,4.6,-,N/A,,Scattered Clouds,350,2013-08-03 16:52:00
12:13 PM,71.6,51.8,50,30.19,10.0,NNW,4.6,-,N/A,,Mostly Cloudy,340,2013-08-03 17:13:00
12:33 PM,73.4,50.0,44,30.19,10.0,NNE,4.6,-,N/A,,Scattered Clouds,30,2013-08-03 17:33:00
12:52 PM,73.4,50.0,44,30.19,10.0,NW,4.6,-,N/A,,Scattered Clouds,310,2013-08-03 17:52:00
1:13 PM,75.2,50.0,41,30.19,10.0,NNW,6.9,-,N/A,,Scattered Clouds,330,2013-08-03 18:13:00
1:32 PM,75.2,48.2,38,30.19,10.0,NNW,8.1,-,N/A,,Scattered Clouds,340,2013-08-03 18:32:00
1:53 PM,75.2,48.2,38,30.19,10.0,North,10.4,16.1,N/A,,Clear,350,2013-08-03 18:53:00
2:13 PM,75.2,46.4,36,30.19,10.0,NNW,10.4,-,N/A,,Scattered Clouds,340,2013-08-03 19:13:00
2:32 PM,77.0,48.2,36,30.19,10.0,NNW,9.2,-,N/A,,Scattered Clouds,340,2013-08-03 19:32:00
2:53 PM,77.0,48.2,36,30.18,10.0,NW,9.2,-,N/A,,Scattered Clouds,320,2013-08-03 19:53:00
3:12 PM,77.0,46.4,34,30.18,10.0,NNW,4.6,-,N/A,,Scattered Clouds,330,2013-08-03 20:12:00
3:33 PM,75.2,46.4,36,30.18,10.0,NW,9.2,-,N/A,,Scattered Clouds,310,2013-08-03 20:33:00
3:53 PM,77.0,46.4,34,30.18,10.0,North,9.2,-,N/A,,Scattered Clouds,350,2013-08-03 20:53:00
4:12 PM,75.2,46.4,36,30.18,10.0,North,10.4,-,N/A,,Scattered Clouds,350,2013-08-03 21:12:00
4:33 PM,75.2,46.4,36,30.18,10.0,NW,4.6,-,N/A,,Scattered Clouds,320,2013-08-03 21:33:00
4:53 PM,75.2,46.4,36,30.17,10.0,North,5.8,-,N/A,,Clear,350,2013-08-03 21:53:00
5:12 PM,77.0,46.4,34,-9999,10.0,North,6.9,-,N/A,,Clear,350,2013-08-03 22:12:00
5:33 PM,75.2,46.4,36,30.17,10.0,North,12.7,-,N/A,,Scattered Clouds,360,2013-08-03 22:33:00
5:53 PM,75.2,48.2,38,30.17,10.0,North,6.9,-,N/A,,Scattered Clouds,10,2013-08-03 22:53:00
6:12 PM,75.2,48.2,38,30.17,10.0,NNW,11.5,-,N/A,,Scattered Clouds,330,2013-08-03 23:12:00
6:33 PM,75.2,46.4,36,30.17,10.0,North,8.1,-,N/A,,Clear,360,2013-08-03 23:33:00
6:53 PM,73.4,46.4,38,30.17,10.0,North,8.1,-,N/A,,Clear,360,2013-08-03 23:53:00
7:12 PM,73.4,46.4,38,30.17,10.0,North,8.1,-,N/A,,Clear,350,2013-08-04 00:12:00
7:33 PM,73.4,46.4,38,30.17,10.0,North,8.1,-,N/A,,Clear,10,2013-08-04 00:33:00
7:52 PM,71.6,46.4,41,30.18,10.0,North,3.5,-,N/A,,Clear,360,2013-08-04 00:52:00
8:13 PM,69.8,46.4,43,30.18,10.0,North,3.5,-,N/A,,Clear,350,2013-08-04 01:13:00
8:32 PM,66.2,48.2,52,30.18,10.0,Calm,Calm,-,N/A,,Clear,0,2013-08-04 01:32:00
8:53 PM,66.2,48.2,52,30.19,10.0,North,3.5,-,N/A,,Scattered Clouds,350,2013-08-04 01:53:00
9:13 PM,66.2,48.2,52,30.19,10.0,NNW,3.5,-,N/A,,Scattered Clouds,340,2013-08-04 02:13:00
9:33 PM,64.4,48.2,56,30.20,10.0,North,4.6,-,N/A,,Clear,350,2013-08-04 02:33:00
9:52 PM,64.4,50.0,59,30.20,10.0,North,3.5,-,N/A,,Clear,10,2013-08-04 02:52:00
10:13 PM,62.6,50.0,63,30.21,10.0,Calm,Calm,-,N/A,,Clear,0,2013-08-04 03:13:00
10:33 PM,64.4,50.0,59,30.21,10.0,Calm,Calm,-,N/A,,Scattered Clouds,0,2013-08-04 03:33:00
10:52 PM,62.6,51.8,68,30.22,10.0,Calm,Calm,-,N/A,,Clear,0,2013-08-04 03:52:00
11:13 PM,62.6,51.8,68,30.22,10.0,Calm,Calm,-,N/A,,Unknown,0,2013-08-04 04:13:00
11:32 PM,60.8,51.8,72,30.22,10.0,Calm,Calm,-,N/A,,Unknown,0,2013-08-04 04:32:00
11:53 PM,60.8,51.8,72,30.23,10.0,Calm,Calm,-,N/A,,Clear,0,2013-08-04 04:53:00